Time;durP1;ratioP1;P1;durP2;ratioP2;P2;SDS_P1;SDS_P2;PMS_P1;PMS_P2;Temp;Humidity;BMP_temperature;BMP_pressure;BME280_temperature;BME280_humidity;BME280_pressure;Samples;Min_cycle;Max_cycle;Signal;HPM_P1;HPM_P2
2021/08/08 00:00:15;;;;;;;;;;;15.10;99.90;;;;;;5153827;27;19931;-87
2021/08/08 00:02:41;;;;;;;;;;;15.10;99.90;;;;;;5149179;27;20365;-87
2021/08/08 00:05:09;;;;;;;;;;;15.10;99.90;;;;;;5116793;27;19945;-87
2021/08/08 00:07:35;;;;;;;;;;;15.10;99.90;;;;;;5159496;27;20390;-87
2021/08/08 00:10:00;;;;;;;;;;;15.00;99.90;;;;;;5169070;27;19979;-87
2021/08/08 00:12:27;;;;;;;;;;;15.00;99.90;;;;;;5169898;27;19927;-87
2021/08/08 00:14:52;;;;;;;;;;;15.00;99.90;;;;;;5169484;27;20385;-87
2021/08/08 00:17:18;;;;;;;;;;;15.10;99.90;;;;;;5169729;27;19918;-87
2021/08/08 00:19:44;;;;;;;;;;;15.20;99.90;;;;;;5150718;27;20293;-86
2021/08/08 00:22:09;;;;;;;;;;;15.10;99.90;;;;;;5169489;27;20369;-87
2021/08/08 00:24:35;;;;;;;;;;;15.10;99.90;;;;;;5169283;27;19923;-87
2021/08/08 00:27:01;;;;;;;;;;;15.10;99.90;;;;;;5168914;27;19964;-87
2021/08/08 00:29:27;;;;;;;;;;;15.10;99.90;;;;;;5160366;27;19925;-87
2021/08/08 00:31:52;;;;;;;;;;;15.20;99.90;;;;;;5148209;27;19919;-87
2021/08/08 00:34:18;;;;;;;;;;;15.20;99.90;;;;;;5126045;27;19930;-87
2021/08/08 00:36:44;;;;;;;;;;;15.20;99.90;;;;;;5150566;27;19923;-87
2021/08/08 00:39:09;;;;;;;;;;;15.10;99.90;;;;;;5127072;27;19934;-87
2021/08/08 00:41:35;;;;;;;;;;;15.20;99.90;;;;;;5129387;27;19930;-87
2021/08/08 00:44:01;;;;;;;;;;;15.10;99.90;;;;;;5148175;27;19923;-87
2021/08/08 00:46:27;;;;;;;;;;;15.20;99.90;;;;;;5148295;27;20415;-87
2021/08/08 00:48:52;;;;;;;;;;;15.20;99.90;;;;;;5129748;27;19923;-87
2021/08/08 00:51:18;;;;;;;;;;;15.20;99.90;;;;;;5131307;27;19931;-87
2021/08/08 00:53:44;;;;;;;;;;;15.10;99.90;;;;;;5169130;27;20365;-87
2021/08/08 00:56:11;;;;;;;;;;;15.20;99.90;;;;;;5149961;27;20266;-87
2021/08/08 00:58:37;;;;;;;;;;;15.30;99.90;;;;;;5168963;27;19934;-87
2021/08/08 01:01:03;;;;;;;;;;;15.20;99.90;;;;;;5168762;27;19926;-87
2021/08/08 01:03:29;;;;;;;;;;;15.20;99.90;;;;;;5168487;27;19926;-87
2021/08/08 01:06:00;;;;;;;;;;;15.20;99.90;;;;;;5155983;27;19923;-87
2021/08/08 01:08:29;;;;;;;;;;;15.30;99.90;;;;;;5162187;27;20313;-86
2021/08/08 01:10:55;;;;;;;;;;;15.20;99.90;;;;;;5147926;27;19923;-87
2021/08/08 01:13:22;;;;;;;;;;;15.20;99.90;;;;;;5137235;27;19926;-87
2021/08/08 01:15:48;;;;;;;;;;;15.30;99.90;;;;;;5168163;27;19919;-87
2021/08/08 01:18:15;;;;;;;;;;;15.20;99.90;;;;;;5149865;27;19938;-87
2021/08/08 01:20:42;;;;;;;;;;;15.20;99.90;;;;;;5168525;27;19950;-86
2021/08/08 01:23:08;;;;;;;;;;;15.20;99.90;;;;;;5168055;27;19919;-87
2021/08/08 01:25:34;;;;;;;;;;;15.30;99.90;;;;;;5149698;27;19919;-87
2021/08/08 01:28:00;;;;;;;;;;;15.20;99.90;;;;;;5168358;27;19922;-87
2021/08/08 01:30:26;;;;;;;;;;;15.20;99.90;;;;;;5149977;27;19923;-87
2021/08/08 01:32:59;;;;;;;;;;;15.10;99.90;;;;;;5167597;27;19991;-86
2021/08/08 01:35:25;;;;;;;;;;;15.10;99.90;;;;;;5149630;27;19929;-86
2021/08/08 01:37:50;;;;;;;;;;;15.20;99.90;;;;;;5167877;27;19927;-87
2021/08/08 01:40:19;;;;;;;;;;;15.20;99.90;;;;;;5167358;27;19929;-87
2021/08/08 01:42:45;;;;;;;;;;;15.10;99.90;;;;;;5167208;27;19923;-87
2021/08/08 01:45:13;;;;;;;;;;;15.10;99.90;;;;;;5167681;27;19923;-87
2021/08/08 01:47:41;;;;;;;;;;;15.20;99.90;;;;;;5168173;27;19923;-87
2021/08/08 01:50:07;;;;;;;;;;;15.10;99.90;;;;;;5167833;27;20324;-86
2021/08/08 01:52:35;;;;;;;;;;;15.10;99.90;;;;;;5154056;27;19945;-87
2021/08/08 01:55:01;;;;;;;;;;;15.00;99.90;;;;;;5148264;27;20014;-87
2021/08/08 01:57:27;;;;;;;;;;;15.10;99.90;;;;;;5146884;27;20374;-86
2021/08/08 01:59:53;;;;;;;;;;;15.10;99.90;;;;;;5146724;27;19923;-87
2021/08/08 02:02:19;;;;;;;;;;;15.10;99.90;;;;;;5146496;27;20335;-86
2021/08/08 02:04:45;;;;;;;;;;;15.10;99.90;;;;;;5146638;27;20617;-86
2021/08/08 02:07:15;;;;;;;;;;;15.10;99.90;;;;;;5154150;27;20029;-87
2021/08/08 02:09:40;;;;;;;;;;;15.10;99.90;;;;;;5120746;27;20360;-86
2021/08/08 02:12:06;;;;;;;;;;;15.10;99.90;;;;;;5146676;27;19944;-86
2021/08/08 02:14:33;;;;;;;;;;;15.10;99.90;;;;;;5146278;27;19927;-87
2021/08/08 02:16:59;;;;;;;;;;;15.10;99.90;;;;;;5150475;27;19907;-87
2021/08/08 02:19:25;;;;;;;;;;;15.10;99.90;;;;;;5146961;27;20390;-87
2021/08/08 02:21:51;;;;;;;;;;;15.10;99.90;;;;;;5146798;27;19945;-87
2021/08/08 02:24:17;;;;;;;;;;;15.10;99.90;;;;;;5146074;27;20402;-87
2021/08/08 02:26:43;;;;;;;;;;;15.20;99.90;;;;;;5145719;27;19985;-87
2021/08/08 02:29:08;;;;;;;;;;;15.20;99.90;;;;;;5127119;27;20472;-86
2021/08/08 02:31:38;;;;;;;;;;;15.20;99.90;;;;;;5127150;27;19921;-86
2021/08/08 02:34:04;;;;;;;;;;;15.20;99.90;;;;;;5126498;27;20434;-87
2021/08/08 02:36:30;;;;;;;;;;;15.30;99.90;;;;;;5146107;27;20306;-87
2021/08/08 02:38:56;;;;;;;;;;;15.30;99.90;;;;;;5145987;27;19923;-87
2021/08/08 02:41:21;;;;;;;;;;;15.30;99.90;;;;;;5145179;27;19923;-87
2021/08/08 02:43:47;;;;;;;;;;;15.30;99.90;;;;;;5126536;27;20222;-87
2021/08/08 02:46:13;;;;;;;;;;;15.30;99.90;;;;;;5126095;27;19923;-87
2021/08/08 02:48:38;;;;;;;;;;;15.30;99.90;;;;;;5145457;27;19923;-87
2021/08/08 02:51:04;;;;;;;;;;;15.30;99.90;;;;;;5149585;27;19919;-86
2021/08/08 02:53:30;;;;;;;;;;;15.30;99.90;;;;;;5171285;27;20353;-87
2021/08/08 02:55:55;;;;;;;;;;;15.40;99.90;;;;;;5169664;27;20222;-87
2021/08/08 02:58:21;;;;;;;;;;;15.30;99.90;;;;;;5153236;27;20335;-87
2021/08/08 03:00:47;;;;;;;;;;;15.30;99.90;;;;;;5152821;27;20026;-87
2021/08/08 03:03:12;;;;;;;;;;;15.30;99.90;;;;;;5170866;27;19922;-87
2021/08/08 03:05:38;;;;;;;;;;;15.20;99.90;;;;;;5170308;27;19975;-87
2021/08/08 03:08:04;;;;;;;;;;;15.20;99.90;;;;;;5156293;27;19919;-87
2021/08/08 03:10:30;;;;;;;;;;;15.20;99.90;;;;;;5131305;27;19934;-87
2021/08/08 03:12:56;;;;;;;;;;;15.20;99.90;;;;;;5149451;27;19929;-87
2021/08/08 03:15:25;;;;;;;;;;;15.20;99.90;;;;;;5158183;27;19930;-87
2021/08/08 03:17:51;;;;;;;;;;;15.20;99.90;;;;;;5151660;27;20365;-87
2021/08/08 03:20:19;;;;;;;;;;;15.20;99.90;;;;;;5171164;27;20006;-87
2021/08/08 03:22:46;;;;;;;;;;;15.20;99.90;;;;;;5170378;27;19962;-87
2021/08/08 03:25:11;;;;;;;;;;;15.10;99.90;;;;;;5170567;27;19967;-87
2021/08/08 03:27:37;;;;;;;;;;;15.20;99.90;;;;;;5151353;27;19926;-87
2021/08/08 03:30:04;;;;;;;;;;;15.20;99.90;;;;;;5170169;27;20404;-87
2021/08/08 03:32:30;;;;;;;;;;;15.10;99.90;;;;;;5170198;27;19944;-87
2021/08/08 03:34:57;;;;;;;;;;;15.10;99.90;;;;;;5170789;27;19919;-87
2021/08/08 03:37:23;;;;;;;;;;;15.20;99.90;;;;;;5170406;27;19919;-86
2021/08/08 03:39:50;;;;;;;;;;;15.10;99.90;;;;;;5151884;27;19970;-86
2021/08/08 03:42:16;;;;;;;;;;;15.10;99.90;;;;;;5170428;27;20987;-87
2021/08/08 03:44:42;;;;;;;;;;;15.20;99.90;;;;;;5150200;27;19923;-86
2021/08/08 03:47:08;;;;;;;;;;;15.20;99.90;;;;;;5148759;27;20438;-87
2021/08/08 03:49:33;;;;;;;;;;;15.20;99.90;;;;;;5131098;27;19958;-86
2021/08/08 03:51:59;;;;;;;;;;;15.20;99.90;;;;;;5157697;27;20512;-87
2021/08/08 03:54:26;;;;;;;;;;;15.20;99.90;;;;;;5152755;27;19926;-86
2021/08/08 03:56:52;;;;;;;;;;;15.20;99.90;;;;;;5148353;27;20370;-87
2021/08/08 03:59:18;;;;;;;;;;;15.30;99.90;;;;;;5156778;27;19927;-87
2021/08/08 04:01:44;;;;;;;;;;;15.20;99.90;;;;;;5150268;27;20293;-86
2021/08/08 04:04:10;;;;;;;;;;;15.20;99.90;;;;;;5169887;27;19972;-87
2021/08/08 04:06:35;;;;;;;;;;;15.30;99.90;;;;;;5148926;27;19922;-86
2021/08/08 04:09:01;;;;;;;;;;;15.30;99.90;;;;;;5129796;27;20010;-87
2021/08/08 04:11:27;;;;;;;;;;;15.30;99.90;;;;;;5149227;27;19941;-87
2021/08/08 04:13:52;;;;;;;;;;;15.30;99.90;;;;;;5148587;27;19923;-87
2021/08/08 04:16:19;;;;;;;;;;;15.40;99.90;;;;;;5148557;27;19931;-87
2021/08/08 04:18:47;;;;;;;;;;;15.50;99.90;;;;;;5130108;27;19923;-87
2021/08/08 04:21:12;;;;;;;;;;;15.40;99.90;;;;;;5130039;27;20347;-87
2021/08/08 04:23:38;;;;;;;;;;;15.40;99.90;;;;;;5148509;27;19927;-87
2021/08/08 04:26:04;;;;;;;;;;;15.50;99.90;;;;;;5148798;27;19979;-87
2021/08/08 04:28:30;;;;;;;;;;;15.50;99.90;;;;;;5129353;27;20355;-87
2021/08/08 04:30:55;;;;;;;;;;;15.50;99.90;;;;;;5148503;27;19927;-87
2021/08/08 04:33:21;;;;;;;;;;;15.50;99.90;;;;;;5130008;27;19923;-87
2021/08/08 04:35:47;;;;;;;;;;;15.50;99.90;;;;;;5160715;27;19960;-87
2021/08/08 04:38:13;;;;;;;;;;;15.60;99.90;;;;;;5150324;27;19970;-87
2021/08/08 04:40:38;;;;;;;;;;;15.60;99.90;;;;;;5169222;27;19922;-87
2021/08/08 04:43:07;;;;;;;;;;;15.70;99.90;;;;;;5169271;27;19927;-87
2021/08/08 04:45:33;;;;;;;;;;;15.60;99.90;;;;;;5168725;27;20326;-87
2021/08/08 04:47:59;;;;;;;;;;;15.70;99.90;;;;;;5142364;27;20009;-86
2021/08/08 04:50:25;;;;;;;;;;;15.70;99.90;;;;;;5147931;27;20426;-86
2021/08/08 04:52:50;;;;;;;;;;;15.70;99.90;;;;;;5134234;27;19931;-86
2021/08/08 04:55:17;;;;;;;;;;;15.70;99.90;;;;;;5148297;27;19923;-87
2021/08/08 04:57:42;;;;;;;;;;;15.60;99.90;;;;;;5129351;27;19934;-87
2021/08/08 05:00:09;;;;;;;;;;;15.60;99.90;;;;;;5128886;27;19974;-87
2021/08/08 05:02:35;;;;;;;;;;;15.70;99.90;;;;;;5147360;27;20332;-87
2021/08/08 05:05:07;;;;;;;;;;;15.70;99.90;;;;;;5129445;27;19961;-87
2021/08/08 05:07:38;;;;;;;;;;;15.70;99.90;;;;;;5158256;27;20012;-86
2021/08/08 05:10:06;;;;;;;;;;;15.80;99.90;;;;;;5149304;27;20009;-86
2021/08/08 05:12:31;;;;;;;;;;;15.80;99.90;;;;;;5149673;27;20508;-86
2021/08/08 05:14:58;;;;;;;;;;;15.90;99.90;;;;;;5168033;27;19956;-86
2021/08/08 05:17:24;;;;;;;;;;;16.00;99.90;;;;;;5159220;27;19958;-87
2021/08/08 05:19:50;;;;;;;;;;;16.10;99.90;;;;;;5146661;27;19966;-86
2021/08/08 05:22:15;;;;;;;;;;;16.10;99.90;;;;;;5124243;27;19962;-87
2021/08/08 05:24:41;;;;;;;;;;;16.10;99.90;;;;;;5159818;27;19923;-86
2021/08/08 05:27:07;;;;;;;;;;;15.90;99.90;;;;;;5168258;27;19923;-86
2021/08/08 05:29:32;;;;;;;;;;;16.00;99.90;;;;;;5168181;27;19990;-86
2021/08/08 05:31:58;;;;;;;;;;;16.10;99.90;;;;;;5131717;27;20022;-86
2021/08/08 05:34:24;;;;;;;;;;;16.10;99.90;;;;;;5167943;27;20005;-86
2021/08/08 05:36:49;;;;;;;;;;;15.80;99.90;;;;;;5168269;27;20013;-87
2021/08/08 05:39:19;;;;;;;;;;;15.90;99.90;;;;;;5167933;27;19962;-88
2021/08/08 05:41:45;;;;;;;;;;;16.00;99.90;;;;;;5167488;27;19988;-88
2021/08/08 05:44:10;;;;;;;;;;;15.70;99.90;;;;;;5149879;27;19927;-87
2021/08/08 05:46:36;;;;;;;;;;;15.60;99.90;;;;;;5128550;27;19926;-87
2021/08/08 05:49:02;;;;;;;;;;;15.50;99.90;;;;;;5128560;27;20042;-87
2021/08/08 05:51:29;;;;;;;;;;;15.70;99.90;;;;;;5120467;27;19941;-88
2021/08/08 05:53:54;;;;;;;;;;;15.80;99.90;;;;;;5118789;27;20378;-87
2021/08/08 05:56:20;;;;;;;;;;;15.70;99.90;;;;;;5145337;27;19922;-88
2021/08/08 05:58:46;;;;;;;;;;;15.70;99.90;;;;;;5148952;27;20370;-87
2021/08/08 06:01:11;;;;;;;;;;;15.80;99.90;;;;;;5167434;27;20013;-87
2021/08/08 06:03:37;;;;;;;;;;;15.70;99.90;;;;;;5148762;27;20457;-88
2021/08/08 06:06:03;;;;;;;;;;;15.80;99.90;;;;;;5163950;27;20007;-88
2021/08/08 06:08:29;;;;;;;;;;;15.80;99.90;;;;;;5131795;27;19962;-87
2021/08/08 06:10:54;;;;;;;;;;;15.90;99.90;;;;;;5161016;27;19923;-87
2021/08/08 06:13:20;;;;;;;;;;;15.90;99.90;;;;;;5163340;27;19919;-87
2021/08/08 06:15:46;;;;;;;;;;;15.90;99.90;;;;;;5156851;27;20310;-87
2021/08/08 06:18:12;;;;;;;;;;;15.90;99.90;;;;;;5126283;27;19945;-87
2021/08/08 06:20:38;;;;;;;;;;;16.00;99.90;;;;;;5127628;27;19922;-88
2021/08/08 06:23:04;;;;;;;;;;;15.90;99.90;;;;;;5146260;27;20339;-87
2021/08/08 06:25:29;;;;;;;;;;;16.00;99.90;;;;;;5130334;27;19941;-87
2021/08/08 06:27:55;;;;;;;;;;;16.00;99.90;;;;;;5151029;27;20013;-88
2021/08/08 06:30:21;;;;;;;;;;;15.90;99.90;;;;;;5150943;27;20340;-88
2021/08/08 06:32:46;;;;;;;;;;;15.90;99.90;;;;;;5156032;27;19926;-87
2021/08/08 06:35:12;;;;;;;;;;;15.90;99.90;;;;;;5127496;27;19923;-87
2021/08/08 06:37:43;;;;;;;;;;;15.80;99.90;;;;;;5135193;27;19958;-85
2021/08/08 06:40:10;;;;;;;;;;;15.80;99.90;;;;;;5127202;27;20460;-86
2021/08/08 06:42:36;;;;;;;;;;;15.90;99.90;;;;;;5140122;27;20010;-87
2021/08/08 06:45:02;;;;;;;;;;;16.00;99.90;;;;;;5147906;27;20021;-87
2021/08/08 06:47:28;;;;;;;;;;;16.00;99.90;;;;;;5132352;27;20047;-87
2021/08/08 06:49:53;;;;;;;;;;;15.90;99.90;;;;;;5129416;27;20394;-89
2021/08/08 06:52:19;;;;;;;;;;;16.00;99.90;;;;;;5126813;27;19923;-91
2021/08/08 06:54:45;;;;;;;;;;;15.90;99.90;;;;;;5139800;27;19919;-93
2021/08/08 06:57:11;;;;;;;;;;;15.80;99.90;;;;;;5146505;27;20275;-91
2021/08/08 06:59:40;;;;;;;;;;;16.00;99.90;;;;;;5135091;27;19927;-89
2021/08/08 07:02:07;;;;;;;;;;;16.00;99.90;;;;;;5140932;27;19919;-90
2021/08/08 07:04:32;;;;;;;;;;;16.20;99.90;;;;;;5139419;27;19938;-91
2021/08/08 07:06:58;;;;;;;;;;;15.90;99.90;;;;;;5130300;27;20398;-93
2021/08/08 07:09:23;;;;;;;;;;;15.80;99.90;;;;;;5119655;27;19915;-86
2021/08/08 07:11:49;;;;;;;;;;;15.80;99.90;;;;;;5123387;27;19923;-86
2021/08/08 07:14:15;;;;;;;;;;;15.90;99.90;;;;;;5130703;27;19919;-86
2021/08/08 07:16:40;;;;;;;;;;;16.10;99.90;;;;;;5150575;27;20647;-85
2021/08/08 07:19:07;;;;;;;;;;;15.80;99.90;;;;;;5128375;27;19934;-85
2021/08/08 07:21:32;;;;;;;;;;;16.00;99.90;;;;;;5149785;27;19923;-85
2021/08/08 07:23:58;;;;;;;;;;;16.10;99.90;;;;;;5130670;27;19958;-85
2021/08/08 07:26:24;;;;;;;;;;;16.20;99.90;;;;;;5149688;27;19919;-85
2021/08/08 07:28:49;;;;;;;;;;;16.20;99.90;;;;;;5149524;27;19919;-84
2021/08/08 07:31:15;;;;;;;;;;;16.10;99.90;;;;;;5130836;27;19972;-85
2021/08/08 07:33:41;;;;;;;;;;;16.10;99.90;;;;;;5136093;27;20420;-87
2021/08/08 07:36:07;;;;;;;;;;;16.00;99.90;;;;;;5136016;27;19950;-85
2021/08/08 07:38:32;;;;;;;;;;;16.10;99.90;;;;;;5145688;27;19922;-87
2021/08/08 07:40:58;;;;;;;;;;;16.10;99.90;;;;;;5171100;27;19926;-86
2021/08/08 07:43:24;;;;;;;;;;;16.10;99.90;;;;;;5139343;27;19961;-87
2021/08/08 07:45:49;;;;;;;;;;;16.00;99.90;;;;;;5136502;27;20380;-87
2021/08/08 07:48:15;;;;;;;;;;;16.00;99.90;;;;;;5155965;27;19938;-89
2021/08/08 07:50:41;;;;;;;;;;;16.10;99.90;;;;;;5134568;27;20446;-88
2021/08/08 07:53:07;;;;;;;;;;;16.20;99.90;;;;;;5142383;27;20051;-90
2021/08/08 07:55:32;;;;;;;;;;;16.30;99.90;;;;;;5133114;27;20003;-84
2021/08/08 07:57:58;;;;;;;;;;;16.40;99.90;;;;;;5138057;27;20382;-87
2021/08/08 08:00:24;;;;;;;;;;;16.40;99.90;;;;;;5136343;27;19934;-87
2021/08/08 08:02:49;;;;;;;;;;;16.20;99.90;;;;;;5136323;27;19923;-86
2021/08/08 08:05:15;;;;;;;;;;;16.30;99.90;;;;;;5134673;27;19923;-86
2021/08/08 08:07:41;;;;;;;;;;;16.40;99.90;;;;;;5155451;27;19930;-85
2021/08/08 08:10:07;;;;;;;;;;;16.40;99.90;;;;;;5155695;27;19936;-88
2021/08/08 08:12:32;;;;;;;;;;;16.50;99.90;;;;;;5164727;27;20674;-89
2021/08/08 08:14:58;;;;;;;;;;;16.50;99.90;;;;;;5155759;27;19919;-84
2021/08/08 08:17:24;;;;;;;;;;;16.40;99.90;;;;;;5159263;27;19927;-83
2021/08/08 08:19:51;;;;;;;;;;;16.20;99.90;;;;;;5135272;27;19923;-84
2021/08/08 08:22:17;;;;;;;;;;;16.10;99.90;;;;;;5117255;27;19925;-83
2021/08/08 08:24:43;;;;;;;;;;;15.90;99.90;;;;;;5135819;27;20385;-84
2021/08/08 08:27:09;;;;;;;;;;;16.00;99.90;;;;;;5152172;27;19927;-83
2021/08/08 08:29:34;;;;;;;;;;;16.20;99.90;;;;;;5159353;27;19925;-84
2021/08/08 08:32:00;;;;;;;;;;;16.30;99.90;;;;;;5154881;27;19946;-84
2021/08/08 08:34:25;;;;;;;;;;;16.30;99.90;;;;;;5135438;27;19922;-84
2021/08/08 08:36:51;;;;;;;;;;;16.20;99.90;;;;;;5157599;27;19922;-84
2021/08/08 08:39:17;;;;;;;;;;;16.10;99.90;;;;;;5146610;27;19927;-84
2021/08/08 08:41:44;;;;;;;;;;;16.10;99.90;;;;;;5129066;27;20259;-85
2021/08/08 08:44:09;;;;;;;;;;;16.00;99.90;;;;;;5134381;27;19918;-84
2021/08/08 08:46:36;;;;;;;;;;;16.10;99.90;;;;;;5141182;27;19941;-85
2021/08/08 08:49:02;;;;;;;;;;;16.10;99.90;;;;;;5150634;27;19923;-86
2021/08/08 08:51:30;;;;;;;;;;;16.00;99.90;;;;;;5137477;27;20588;-87
2021/08/08 08:53:56;;;;;;;;;;;16.10;99.90;;;;;;5155176;27;19929;-88
2021/08/08 08:56:22;;;;;;;;;;;16.10;99.90;;;;;;5167911;27;19922;-86
2021/08/08 08:58:47;;;;;;;;;;;16.10;99.90;;;;;;5135916;27;19930;-88
2021/08/08 09:01:13;;;;;;;;;;;16.10;99.90;;;;;;5131866;27;19927;-86
2021/08/08 09:03:40;;;;;;;;;;;16.10;99.90;;;;;;5156032;27;19923;-86
2021/08/08 09:06:06;;;;;;;;;;;16.10;99.90;;;;;;5152802;27;20063;-85
2021/08/08 09:08:32;;;;;;;;;;;16.10;99.90;;;;;;5155042;27;20006;-85
2021/08/08 09:11:01;;;;;;;;;;;16.10;99.90;;;;;;5155299;27;20202;-87
2021/08/08 09:13:27;;;;;;;;;;;16.20;99.90;;;;;;5136189;27;19919;-86
2021/08/08 09:15:53;;;;;;;;;;;16.20;99.90;;;;;;5134873;27;19930;-87
2021/08/08 09:18:22;;;;;;;;;;;16.20;99.90;;;;;;5135726;27;19919;-85
2021/08/08 09:20:49;;;;;;;;;;;16.30;99.90;;;;;;5132577;27;19927;-86
2021/08/08 09:23:16;;;;;;;;;;;16.30;99.90;;;;;;5151995;27;19923;-86
2021/08/08 09:25:55;;;;;;;;;;;16.20;99.90;;;;;;5115536;27;19927;-85
2021/08/08 09:28:28;;;;;;;;;;;16.20;99.90;;;;;;5137564;27;19972;-87
2021/08/08 09:30:54;;;;;;;;;;;16.20;99.90;;;;;;5148342;27;20003;-88
2021/08/08 09:33:20;;;;;;;;;;;16.20;99.90;;;;;;5153341;27;20633;-87
2021/08/08 09:35:49;;;;;;;;;;;16.20;99.90;;;;;;5156868;27;19923;-86
2021/08/08 09:38:15;;;;;;;;;;;16.30;99.90;;;;;;5147296;27;19923;-86
2021/08/08 09:40:42;;;;;;;;;;;16.40;99.90;;;;;;5147615;27;20004;-86
2021/08/08 09:43:09;;;;;;;;;;;16.50;99.90;;;;;;5138378;27;19923;-86
2021/08/08 09:45:36;;;;;;;;;;;16.50;99.90;;;;;;5156425;27;19962;-84
2021/08/08 09:48:02;;;;;;;;;;;16.40;99.90;;;;;;5150912;27;19922;-85
2021/08/08 09:50:30;;;;;;;;;;;16.40;99.90;;;;;;5149015;27;19968;-85
2021/08/08 09:52:58;;;;;;;;;;;16.10;99.90;;;;;;5135278;27;19977;-85
2021/08/08 09:55:31;;;;;;;;;;;16.10;99.90;;;;;;5149771;27;19923;-87
2021/08/08 09:57:57;;;;;;;;;;;16.20;99.90;;;;;;5140747;27;19923;-87
2021/08/08 10:00:34;;;;;;;;;;;16.30;99.90;;;;;;5119125;27;20279;-86
2021/08/08 10:03:00;;;;;;;;;;;16.30;99.90;;;;;;5141568;27;19937;-87
2021/08/08 10:05:26;;;;;;;;;;;16.30;99.90;;;;;;5136741;27;19923;-87
2021/08/08 10:07:53;;;;;;;;;;;16.40;99.90;;;;;;5138098;27;19927;-86
2021/08/08 10:10:20;;;;;;;;;;;16.50;99.90;;;;;;5159327;27;19922;-86
2021/08/08 10:13:04;;;;;;;;;;;16.50;99.90;;;;;;5151540;27;19919;-87
2021/08/08 10:15:30;;;;;;;;;;;16.60;99.90;;;;;;5149471;27;19947;-87
2021/08/08 10:17:59;;;;;;;;;;;16.50;99.90;;;;;;5147571;27;19927;-86
2021/08/08 10:20:24;;;;;;;;;;;16.60;99.90;;;;;;5137591;27;19919;-86
2021/08/08 10:22:53;;;;;;;;;;;16.70;99.90;;;;;;5098688;27;19931;-87
2021/08/08 10:25:19;;;;;;;;;;;16.70;99.90;;;;;;5125525;27;19931;-86
2021/08/08 10:27:45;;;;;;;;;;;16.70;99.90;;;;;;5119200;27;20381;-85
2021/08/08 10:30:11;;;;;;;;;;;16.80;99.90;;;;;;5133916;27;20049;-87
2021/08/08 10:32:36;;;;;;;;;;;16.90;99.90;;;;;;5135437;27;20013;-85
2021/08/08 10:35:12;;;;;;;;;;;16.80;99.90;;;;;;5150417;27;20389;-86
2021/08/08 10:37:39;;;;;;;;;;;16.20;99.90;;;;;;5151004;27;19945;-86
2021/08/08 10:40:05;;;;;;;;;;;16.50;99.90;;;;;;5157695;27;19974;-85
2021/08/08 10:42:39;;;;;;;;;;;16.20;99.90;;;;;;5131598;27;19923;-83
2021/08/08 10:45:05;;;;;;;;;;;16.10;99.90;;;;;;5147110;27;20010;-85
2021/08/08 10:47:32;;;;;;;;;;;16.00;99.90;;;;;;5157224;27;20021;-85
2021/08/08 10:50:11;;;;;;;;;;;16.00;99.90;;;;;;5131781;27;19922;-85
2021/08/08 10:52:37;;;;;;;;;;;15.90;99.90;;;;;;5143472;27;19923;-85
2021/08/08 10:55:03;;;;;;;;;;;16.00;99.90;;;;;;5154743;27;19927;-85
2021/08/08 10:57:39;;;;;;;;;;;15.80;99.90;;;;;;5146949;27;19954;-85
2021/08/08 11:00:12;;;;;;;;;;;15.70;99.90;;;;;;5165158;27;19983;-85
2021/08/08 11:02:37;;;;;;;;;;;15.80;99.90;;;;;;5129305;27;19970;-87
2021/08/08 11:05:13;;;;;;;;;;;15.90;99.90;;;;;;5124980;27;19958;-86
2021/08/08 11:07:40;;;;;;;;;;;15.90;99.90;;;;;;5133759;27;19927;-86
2021/08/08 11:10:06;;;;;;;;;;;16.00;99.90;;;;;;5134614;27;19922;-87
2021/08/08 11:12:33;;;;;;;;;;;16.00;99.90;;;;;;5170019;27;20289;-86
2021/08/08 11:14:58;;;;;;;;;;;16.00;99.90;;;;;;5145060;27;20013;-85
2021/08/08 11:17:25;;;;;;;;;;;16.10;99.90;;;;;;5137318;27;20010;-86
2021/08/08 11:19:50;;;;;;;;;;;16.10;99.90;;;;;;5136779;27;20441;-85
2021/08/08 11:22:18;;;;;;;;;;;16.20;99.90;;;;;;5141015;27;19922;-89
2021/08/08 11:24:58;;;;;;;;;;;16.10;99.90;;;;;;5156356;27;19922;-87
2021/08/08 11:27:28;;;;;;;;;;;15.90;99.90;;;;;;5156302;27;19926;-85
2021/08/08 11:29:54;;;;;;;;;;;15.50;99.90;;;;;;5158855;27;19930;-86
2021/08/08 11:32:26;;;;;;;;;;;15.80;99.90;;;;;;5154622;27;20011;-85
2021/08/08 11:34:58;;;;;;;;;;;15.60;99.90;;;;;;5154761;27;19987;-85
2021/08/08 11:37:31;;;;;;;;;;;15.60;99.90;;;;;;5137503;27;19927;-85
2021/08/08 11:39:56;;;;;;;;;;;15.60;99.90;;;;;;5139343;27;19950;-87
2021/08/08 11:42:28;;;;;;;;;;;15.70;99.90;;;;;;5132352;27;20378;-87
2021/08/08 11:44:54;;;;;;;;;;;15.60;99.90;;;;;;5160376;27;19919;-88
2021/08/08 11:47:25;;;;;;;;;;;15.70;99.90;;;;;;5155890;27;20598;-88
2021/08/08 11:49:50;;;;;;;;;;;15.70;99.90;;;;;;5158301;27;19923;-87
2021/08/08 11:52:17;;;;;;;;;;;15.80;99.90;;;;;;5121038;27;20441;-86
2021/08/08 11:54:45;;;;;;;;;;;15.90;99.90;;;;;;5153159;27;19933;-86
2021/08/08 11:57:10;;;;;;;;;;;15.90;99.90;;;;;;5147161;27;20087;-85
2021/08/08 11:59:37;;;;;;;;;;;16.00;99.90;;;;;;5131565;27;20750;-86
2021/08/08 12:02:04;;;;;;;;;;;16.00;99.90;;;;;;5135348;27;19923;-85
2021/08/08 12:04:32;;;;;;;;;;;16.00;99.90;;;;;;5133687;27;19926;-85
2021/08/08 12:06:57;;;;;;;;;;;16.20;99.90;;;;;;5131606;27;19950;-86
2021/08/08 12:09:23;;;;;;;;;;;16.30;99.90;;;;;;5143348;27;20309;-88
2021/08/08 12:11:53;;;;;;;;;;;16.40;99.90;;;;;;5137228;27;19951;-87
2021/08/08 12:14:51;;;;;;;;;;;16.50;99.90;;;;;;5131289;27;19962;-86
2021/08/08 12:17:18;;;;;;;;;;;16.50;99.90;;;;;;5099842;27;19933;-86
2021/08/08 12:19:45;;;;;;;;;;;16.30;99.90;;;;;;5142759;27;19934;-88
2021/08/08 12:22:15;;;;;;;;;;;16.30;99.90;;;;;;5137831;27;19975;-86
2021/08/08 12:24:44;;;;;;;;;;;16.10;99.90;;;;;;5139416;27;19951;-86
2021/08/08 12:27:28;;;;;;;;;;;16.40;99.90;;;;;;5128406;27;19950;-86
2021/08/08 12:29:56;;;;;;;;;;;15.80;99.90;;;;;;5136809;27;19931;-87
2021/08/08 12:32:21;;;;;;;;;;;15.10;99.90;;;;;;5128912;27;19976;-85
2021/08/08 12:34:47;;;;;;;;;;;15.80;99.90;;;;;;5127296;27;19931;-86
2021/08/08 12:37:14;;;;;;;;;;;15.60;99.90;;;;;;5127208;27;19931;-86
2021/08/08 12:39:42;;;;;;;;;;;16.20;99.90;;;;;;5130986;27;19923;-88
2021/08/08 12:42:18;;;;;;;;;;;15.50;99.90;;;;;;5138241;27;20481;-87
2021/08/08 12:44:43;;;;;;;;;;;15.90;99.90;;;;;;5144124;27;19956;-86
2021/08/08 12:47:12;;;;;;;;;;;15.40;99.90;;;;;;5134543;27;19920;-86
2021/08/08 12:49:41;;;;;;;;;;;15.80;99.90;;;;;;5134808;27;19946;-87
2021/08/08 12:52:07;;;;;;;;;;;15.90;99.90;;;;;;5138446;27;19930;-87
2021/08/08 12:54:33;;;;;;;;;;;15.60;99.90;;;;;;5130838;27;19923;-86
2021/08/08 12:56:59;;;;;;;;;;;15.80;99.90;;;;;;5137105;27;19920;-86
2021/08/08 12:59:25;;;;;;;;;;;16.10;99.90;;;;;;5142251;27;19929;-86
2021/08/08 13:01:51;;;;;;;;;;;15.90;99.90;;;;;;5144420;27;19919;-86
2021/08/08 13:04:17;;;;;;;;;;;16.20;99.90;;;;;;5150101;27;19927;-87
2021/08/08 13:06:43;;;;;;;;;;;15.90;99.90;;;;;;5151518;27;19923;-86
2021/08/08 13:09:09;;;;;;;;;;;16.20;99.90;;;;;;5141170;27;19919;-85
2021/08/08 13:11:34;;;;;;;;;;;15.90;99.90;;;;;;5152209;27;19925;-87
2021/08/08 13:14:00;;;;;;;;;;;15.90;99.90;;;;;;5155943;27;20235;-86
2021/08/08 13:16:26;;;;;;;;;;;16.00;99.90;;;;;;5145906;27;19923;-86
2021/08/08 13:18:51;;;;;;;;;;;16.00;99.90;;;;;;5149277;27;20390;-86
2021/08/08 13:21:17;;;;;;;;;;;16.00;99.90;;;;;;5129323;27;19923;-87
2021/08/08 13:23:44;;;;;;;;;;;16.00;99.90;;;;;;5120530;27;20135;-87
2021/08/08 13:26:10;;;;;;;;;;;16.10;99.90;;;;;;5156952;27;20389;-85
2021/08/08 13:28:37;;;;;;;;;;;16.00;99.90;;;;;;5139208;27;19933;-87
2021/08/08 13:31:05;;;;;;;;;;;16.00;99.90;;;;;;5150909;27;19934;-87
2021/08/08 13:33:30;;;;;;;;;;;16.20;99.90;;;;;;5134935;27;19947;-88
2021/08/08 13:35:56;;;;;;;;;;;16.20;99.90;;;;;;5131909;27;20526;-88
2021/08/08 13:38:22;;;;;;;;;;;16.30;99.90;;;;;;5151837;27;19923;-88
2021/08/08 13:40:47;;;;;;;;;;;16.30;99.90;;;;;;5138942;27;19966;-87
2021/08/08 13:43:13;;;;;;;;;;;16.40;99.90;;;;;;5120550;27;19922;-88
2021/08/08 13:45:39;;;;;;;;;;;16.30;99.90;;;;;;5143176;27;19923;-87
2021/08/08 13:48:04;;;;;;;;;;;16.30;99.90;;;;;;5143357;27;20235;-88
2021/08/08 13:50:30;;;;;;;;;;;16.10;99.90;;;;;;5121344;27;20546;-88
2021/08/08 13:52:56;;;;;;;;;;;16.10;99.90;;;;;;5155429;27;19923;-87
2021/08/08 13:55:22;;;;;;;;;;;16.20;99.90;;;;;;5123177;27;20308;-88
2021/08/08 13:57:48;;;;;;;;;;;16.40;99.90;;;;;;5149641;27;20017;-88
2021/08/08 14:00:14;;;;;;;;;;;16.70;99.90;;;;;;5155614;27;19933;-88
2021/08/08 14:02:40;;;;;;;;;;;16.90;99.90;;;;;;5150341;27;19923;-88
2021/08/08 14:05:10;;;;;;;;;;;16.90;99.90;;;;;;5124642;27;20390;-88
2021/08/08 14:07:36;;;;;;;;;;;17.00;99.90;;;;;;5155265;27;19919;-88
2021/08/08 14:10:02;;;;;;;;;;;17.00;99.90;;;;;;5132918;27;19962;-88
2021/08/08 14:12:28;;;;;;;;;;;17.00;99.90;;;;;;5141343;27;19923;-88